createdAt,value
2019-01-19T00:01:49.230Z,10.87
2019-01-19T00:05:20.394Z,10.17
2019-01-19T00:08:30.904Z,10.57
2019-01-19T00:11:41.157Z,11.03
2019-01-19T00:14:50.429Z,10.13
2019-01-19T00:17:56.979Z,11.80
2019-01-19T00:20:42.093Z,11.30
2019-01-19T00:23:51.017Z,10.87
2019-01-19T00:27:15.051Z,12.10
2019-01-19T00:30:38.564Z,11.93
2019-01-19T00:33:34.586Z,10.87
2019-01-19T00:36:40.172Z,10.73
2019-01-19T00:39:43.114Z,10.27
2019-01-19T00:42:37.974Z,10.83
2019-01-19T00:46:18.603Z,11.47
2019-01-19T00:49:25.837Z,10.70
2019-01-19T00:52:46.274Z,11.80
2019-01-19T00:56:10.834Z,11.40
2019-01-19T00:58:50.379Z,12.10
2019-01-19T01:02:01.864Z,11.30
2019-01-19T01:05:17.066Z,11.23
2019-01-19T01:08:36.252Z,10.83
2019-01-19T01:11:27.043Z,11.70
2019-01-19T01:14:39.711Z,11.27
2019-01-19T01:17:54.127Z,11.87
2019-01-19T01:21:07.161Z,11.87
2019-01-19T01:24:21.916Z,12.00
2019-01-19T01:27:21.234Z,11.43
2019-01-19T01:30:32.767Z,11.13
2019-01-19T01:33:37.475Z,10.93
2019-01-19T01:36:55.765Z,11.80
2019-01-19T01:40:04.684Z,10.47
2019-01-19T01:43:08.394Z,11.50
2019-01-19T01:46:36.528Z,11.83
2019-01-19T01:49:33.705Z,11.97
2019-01-19T01:52:32.193Z,11.27
2019-01-19T01:55:24.081Z,11.70
2019-01-19T01:58:21.088Z,11.40
2019-01-19T02:01:29.951Z,11.57
2019-01-19T02:04:35.017Z,11.10
2019-01-19T02:07:52.743Z,12.80
2019-01-19T02:10:57.171Z,12.53
2019-01-19T02:13:54.129Z,12.93
2019-01-19T02:17:12.205Z,12.63
2019-01-19T02:20:35.364Z,12.17
2019-01-19T02:23:27.983Z,13.33
2019-01-19T02:26:42.570Z,12.20
2019-01-19T02:29:55.013Z,11.83
2019-01-19T02:33:09.033Z,12.07
2019-01-19T02:36:24.170Z,12.50
2019-01-19T02:39:38.043Z,11.53
2019-01-19T02:42:44.066Z,11.97
2019-01-19T02:45:47.491Z,11.67
2019-01-19T02:49:13.501Z,12.10
2019-01-19T02:52:23.150Z,12.03
2019-01-19T02:55:37.459Z,12.93
2019-01-19T02:58:24.850Z,13.07
2019-01-19T03:01:23.901Z,12.53
2019-01-19T03:04:35.679Z,13.07
2019-01-19T03:07:54.609Z,12.50
2019-01-19T03:11:09.446Z,13.37
2019-01-19T03:14:31.413Z,12.77
2019-01-19T03:18:00.148Z,14.00
2019-01-19T03:20:58.543Z,12.50
2019-01-19T03:24:12.014Z,12.43
2019-01-19T03:27:15.177Z,13.10
2019-01-19T03:30:46.645Z,12.87
2019-01-19T03:33:55.494Z,11.90
2019-01-19T03:37:29.786Z,12.20
2019-01-19T03:40:40.458Z,12.87
2019-01-19T03:43:51.246Z,12.83
2019-01-19T03:47:06.095Z,12.77
2019-01-19T03:50:01.618Z,12.47
2019-01-19T03:53:10.766Z,12.63
2019-01-19T03:56:18.967Z,12.03
2019-01-19T03:59:21.639Z,12.30
2019-01-19T04:02:50.865Z,12.77
2019-01-19T04:05:55.413Z,12.93
2019-01-19T04:09:15.348Z,13.77
2019-01-19T04:12:16.491Z,13.13
2019-01-19T04:15:32.339Z,13.40
2019-01-19T04:18:38.605Z,13.57
2019-01-19T04:22:06.879Z,13.17
2019-01-19T04:25:03.827Z,14.27
2019-01-19T04:27:35.791Z,13.60
2019-01-19T04:30:10.154Z,13.80
2019-01-19T04:32:42.118Z,14.40
2019-01-19T04:35:14.099Z,14.30
2019-01-19T04:37:46.048Z,14.23
2019-01-19T04:40:18.020Z,13.80
2019-01-19T04:42:50.182Z,14.10
2019-01-19T04:45:22.171Z,14.43
2019-01-19T04:47:54.163Z,14.40
2019-01-19T04:50:26.117Z,13.50
2019-01-19T04:52:58.193Z,13.63
2019-01-19T04:55:30.145Z,12.97
2019-01-19T04:58:02.112Z,14.40
2019-01-19T05:00:34.103Z,13.50
2019-01-19T05:03:06.236Z,13.63
2019-01-19T05:05:38.299Z,13.20
2019-01-19T05:08:10.250Z,12.97
2019-01-19T05:10:42.197Z,12.93
2019-01-19T05:13:14.148Z,13.93
2019-01-19T05:15:46.197Z,14.53
2019-01-19T05:18:18.149Z,14.33
2019-01-19T05:20:52.055Z,14.60
2019-01-19T05:23:25.477Z,15.53
2019-01-19T05:25:57.428Z,14.17
2019-01-19T05:28:29.788Z,14.47
2019-01-19T05:31:01.752Z,15.07
2019-01-19T05:33:33.738Z,15.37
2019-01-19T05:36:05.699Z,16.00
2019-01-19T05:38:37.701Z,17.07
2019-01-19T05:41:09.653Z,22.50
2019-01-19T05:43:41.609Z,24.10
2019-01-19T05:46:21.366Z,20.50
2019-01-19T05:48:48.316Z,18.33
2019-01-19T05:51:20.301Z,17.90
2019-01-19T05:53:52.250Z,16.17
2019-01-19T05:56:24.223Z,15.57
2019-01-19T05:58:56.176Z,14.07
2019-01-19T06:01:28.647Z,14.13
2019-01-19T06:04:00.587Z,14.17
2019-01-19T06:06:33.655Z,13.80
2019-01-19T06:09:08.233Z,13.87
2019-01-19T06:11:40.278Z,13.20
2019-01-19T06:14:12.230Z,14.93
2019-01-19T06:16:44.210Z,14.97
2019-01-19T06:19:16.605Z,14.57
2019-01-19T06:21:57.873Z,14.67
2019-01-19T06:24:29.827Z,13.50
2019-01-19T06:27:01.820Z,13.50
2019-01-19T06:29:33.777Z,14.03
2019-01-19T06:32:05.731Z,14.30
2019-01-19T06:34:37.753Z,13.83
2019-01-19T06:37:09.759Z,13.67
2019-01-19T06:39:41.766Z,14.30
2019-01-19T06:42:13.728Z,14.10
2019-01-19T06:44:46.675Z,13.80
2019-01-19T06:47:18.781Z,14.47
2019-01-19T06:49:50.738Z,15.07
2019-01-19T06:52:22.722Z,14.73
2019-01-19T06:54:54.861Z,14.57
2019-01-19T06:57:27.011Z,15.40
2019-01-19T06:59:58.972Z,28.83
2019-01-19T07:02:30.979Z,41.20
2019-01-19T07:05:02.921Z,18.93
2019-01-19T07:07:34.910Z,17.17
2019-01-19T07:10:10.093Z,14.53
2019-01-19T07:12:42.073Z,14.47
2019-01-19T07:15:14.581Z,15.17
2019-01-19T07:17:46.681Z,15.07
2019-01-19T07:20:21.513Z,15.30
2019-01-19T07:22:53.568Z,16.10
2019-01-19T07:25:25.506Z,14.77
2019-01-19T07:27:57.537Z,14.77
2019-01-19T07:30:30.683Z,14.83
2019-01-19T07:33:02.718Z,14.70
2019-01-19T07:35:34.738Z,14.27
2019-01-19T07:38:06.779Z,14.83
2019-01-19T07:40:38.770Z,15.43
2019-01-19T07:43:14.137Z,15.50
2019-01-19T07:45:46.097Z,14.27
2019-01-19T07:48:18.138Z,13.60
2019-01-19T07:50:50.205Z,14.00
2019-01-19T07:53:23.279Z,13.40
2019-01-19T07:55:55.268Z,13.30
2019-01-19T07:58:27.247Z,13.43
2019-01-19T08:00:59.236Z,13.33
2019-01-19T08:03:31.172Z,14.50
2019-01-19T08:06:03.192Z,14.47
2019-01-19T08:08:35.155Z,14.17
2019-01-19T08:11:07.140Z,14.77
2019-01-19T08:13:39.094Z,14.20
2019-01-19T08:16:11.091Z,16.67
2019-01-19T08:18:43.040Z,15.33
2019-01-19T08:21:15.097Z,15.07
2019-01-19T08:23:47.070Z,16.53
2019-01-19T08:26:19.041Z,16.17
2019-01-19T08:28:51.045Z,16.17
2019-01-19T08:31:23.082Z,16.13
2019-01-19T08:33:55.833Z,17.73
2019-01-19T08:36:27.976Z,14.40
2019-01-19T08:39:00.016Z,14.07
2019-01-19T08:41:31.977Z,14.07
2019-01-19T08:44:05.322Z,13.43
2019-01-19T08:46:37.278Z,13.30
2019-01-19T08:49:13.939Z,13.97
2019-01-19T08:51:46.128Z,13.53
2019-01-19T08:54:18.095Z,13.60
2019-01-19T08:56:50.050Z,13.73
2019-01-19T08:59:21.999Z,13.73
2019-01-19T09:01:53.944Z,13.77
2019-01-19T09:04:25.910Z,13.43
2019-01-19T09:06:57.897Z,14.47
2019-01-19T09:09:30.017Z,14.63
2019-01-19T09:12:02.035Z,15.40
2019-01-19T09:14:34.091Z,15.23
2019-01-19T09:17:07.168Z,16.00
2019-01-19T09:19:39.176Z,14.93
2019-01-19T15:31:05.921Z,52.73
2019-01-19T15:34:13.848Z,51.17
2019-01-19T15:36:58.041Z,49.23
2019-01-19T15:39:53.382Z,52.93
2019-01-19T15:42:58.586Z,51.13
2019-01-19T15:45:43.579Z,47.57
2019-01-19T15:49:00.248Z,48.90
2019-01-19T15:52:00.637Z,46.97
2019-01-19T15:55:12.663Z,46.37
2019-01-19T15:58:18.084Z,50.17
2019-01-19T16:01:20.688Z,48.63
2019-01-19T16:04:28.333Z,48.87
2019-01-19T16:07:39.869Z,48.30
2019-01-19T16:10:49.953Z,51.73
2019-01-19T16:13:56.985Z,76.67
2019-01-19T16:16:59.677Z,84.70
2019-01-19T16:20:14.897Z,70.00
2019-01-19T16:23:08.506Z,66.30
2019-01-19T16:26:12.095Z,63.73
2019-01-19T16:29:05.385Z,59.53
2019-01-19T16:32:27.375Z,50.23
2019-01-19T16:35:39.003Z,63.37
2019-01-19T16:38:49.721Z,65.87
2019-01-19T16:42:14.002Z,69.93
2019-01-19T16:45:35.871Z,87.37
2019-01-19T16:48:42.030Z,115.97
2019-01-19T16:51:33.162Z,117.70
2019-01-19T16:54:14.788Z,125.73
2019-01-19T16:57:22.192Z,122.23
2019-01-19T17:00:53.684Z,147.03
2019-01-19T17:03:59.612Z,216.10
2019-01-19T17:07:11.372Z,165.30
2019-01-19T17:09:58.160Z,147.40
2019-01-19T17:13:05.903Z,137.60
2019-01-19T17:15:57.363Z,131.30
2019-01-19T17:19:10.990Z,139.93
2019-01-19T17:22:23.745Z,171.27
2019-01-19T17:25:31.981Z,143.23
2019-01-19T17:28:51.289Z,135.20
2019-01-19T17:31:50.687Z,171.90
2019-01-19T17:35:10.340Z,189.03
2019-01-19T17:38:10.343Z,230.70
2019-01-19T17:41:18.534Z,289.70
2019-01-19T17:44:44.181Z,280.80
2019-01-19T17:48:00.562Z,268.40
2019-01-19T17:50:56.562Z,262.93
2019-01-19T17:54:13.101Z,259.90
2019-01-19T17:57:04.102Z,256.40
2019-01-19T18:00:16.340Z,263.00
2019-01-19T18:03:11.725Z,259.33
2019-01-19T18:06:12.540Z,300.70
2019-01-19T18:09:15.225Z,338.93
2019-01-19T18:12:14.413Z,362.50
2019-01-19T18:15:22.656Z,379.13
2019-01-19T18:18:28.650Z,408.40
2019-01-19T18:21:14.623Z,369.07
2019-01-19T18:24:33.323Z,429.40
2019-01-19T18:27:39.709Z,426.27
2019-01-19T18:31:05.046Z,443.07
2019-01-19T18:33:55.954Z,427.07
2019-01-19T18:36:43.824Z,422.17
2019-01-19T18:39:55.972Z,386.83
2019-01-19T18:42:56.188Z,559.50
2019-01-19T18:46:21.415Z,787.43
2019-01-19T18:49:29.630Z,633.03
2019-01-19T18:52:23.561Z,515.07
2019-01-19T18:55:09.135Z,536.03
2019-01-19T18:58:29.099Z,542.63
2019-01-19T19:01:24.401Z,506.93
2019-01-19T19:04:15.169Z,472.73
2019-01-19T19:11:04.981Z,499.00
2019-01-19T19:14:47.097Z,541.17
2019-01-19T19:17:45.971Z,565.30
2019-01-19T19:21:27.112Z,559.53
2019-01-19T19:24:49.097Z,535.67
2019-01-19T19:28:34.385Z,545.47
2019-01-19T19:31:37.316Z,580.40
2019-01-19T19:34:38.012Z,568.80
2019-01-19T19:38:04.161Z,589.57
2019-01-19T19:41:10.364Z,544.10
2019-01-19T19:44:28.975Z,514.70
2019-01-19T19:47:28.936Z,447.47
2019-01-19T19:51:37.213Z,468.27
2019-01-19T19:54:21.386Z,556.20
2019-01-19T19:57:07.559Z,555.47
2019-01-19T20:00:09.824Z,546.27
2019-01-19T20:03:00.880Z,621.73
2019-01-19T20:05:40.091Z,658.07
2019-01-19T20:08:45.903Z,582.07
2019-01-19T20:11:37.244Z,501.50
2019-01-19T20:14:28.195Z,554.00
2019-01-19T20:17:46.734Z,553.93
2019-01-19T20:20:57.833Z,547.87
2019-01-19T20:23:46.118Z,565.40
2019-01-19T20:26:21.680Z,604.03
2019-01-19T20:29:25.598Z,557.27
2019-01-19T20:32:38.676Z,428.70
2019-01-19T20:35:11.241Z,429.53
2019-01-19T20:37:52.691Z,455.07
2019-01-19T20:40:25.022Z,439.17
2019-01-19T20:42:57.463Z,416.23
2019-01-19T20:49:17.839Z,391.83
2019-01-19T20:52:17.779Z,421.73
2019-01-19T20:55:03.046Z,426.47
2019-01-19T20:57:52.395Z,466.27
2019-01-19T21:00:59.099Z,481.17
2019-01-19T21:03:41.048Z,469.07
2019-01-19T21:06:33.317Z,489.93
2019-01-19T21:09:27.394Z,482.77
2019-01-19T21:12:25.480Z,454.17
2019-01-19T21:14:58.246Z,451.00
2019-01-19T21:17:31.160Z,433.27
2019-01-19T21:20:05.087Z,443.13
2019-01-19T21:26:48.021Z,539.63
2019-01-19T21:29:51.869Z,522.07
2019-01-19T21:32:47.117Z,492.93
2019-01-19T21:36:12.833Z,492.93
2019-01-19T21:39:21.958Z,513.80
2019-01-19T21:41:54.177Z,503.67
2019-01-19T21:44:47.535Z,515.67
2019-01-19T21:47:22.447Z,473.57
2019-01-19T21:50:17.925Z,453.87
2019-01-19T21:53:27.393Z,416.43
2019-01-19T21:56:33.985Z,477.47
2019-01-19T21:59:45.056Z,491.90
2019-01-19T22:02:40.315Z,470.53
2019-01-19T22:05:18.578Z,455.77
2019-01-19T22:08:16.091Z,447.07
2019-01-19T22:10:49.005Z,428.50
2019-01-19T22:13:35.419Z,410.60
2019-01-19T22:19:26.258Z,339.17
2019-01-19T22:22:20.620Z,342.93
2019-01-19T22:25:19.545Z,337.00
2019-01-19T22:28:02.769Z,345.63
2019-01-19T22:30:47.350Z,397.97
2019-01-19T22:34:03.124Z,565.83
2019-01-19T22:37:08.779Z,439.27
2019-01-19T22:40:00.826Z,384.93
2019-01-19T22:43:03.809Z,403.20
2019-01-19T22:46:17.939Z,328.30
2019-01-19T22:48:58.692Z,321.70
2019-01-19T22:51:42.673Z,321.83
2019-01-19T22:57:58.399Z,288.40
2019-01-19T23:01:30.312Z,265.57
2019-01-19T23:05:14.798Z,197.03
2019-01-19T23:07:53.823Z,194.50
2019-01-19T23:10:42.906Z,187.90
2019-01-19T23:13:15.188Z,170.30
2019-01-19T23:15:47.572Z,266.43
2019-01-19T23:18:19.943Z,215.70
2019-01-19T23:20:52.273Z,229.40
2019-01-19T23:23:24.588Z,223.10
2019-01-19T23:25:58.212Z,212.70
2019-01-19T23:28:30.543Z,191.40
2019-01-19T23:31:02.823Z,245.83
2019-01-19T23:33:35.143Z,203.80
2019-01-19T23:36:07.533Z,190.30
2019-01-19T23:38:39.891Z,231.07
2019-01-19T23:41:12.217Z,229.20
2019-01-19T23:43:45.950Z,224.37
2019-01-19T23:46:19.012Z,214.80
2019-01-19T23:48:51.489Z,205.63
2019-01-19T23:51:23.928Z,187.83
2019-01-19T23:53:56.424Z,167.60
2019-01-19T23:56:28.848Z,179.33
2019-01-19T23:59:01.223Z,186.10
